createdAt,value
2022-12-13T00:00:03.182Z,42.18
2022-12-13T00:01:03.179Z,56.59
2022-12-13T00:02:03.221Z,61.38
2022-12-13T00:03:03.168Z,58.91
2022-12-13T00:04:03.213Z,55.62
2022-12-13T00:05:03.159Z,61.69
2022-12-13T00:06:03.267Z,62.37
2022-12-13T00:07:03.135Z,54.62
2022-12-13T00:08:03.171Z,59.49
2022-12-13T00:09:03.122Z,50.70
2022-12-13T00:10:03.111Z,48.12
2022-12-13T00:11:03.109Z,41.56
2022-12-13T00:12:03.104Z,55.82
2022-12-13T00:13:03.093Z,47.31
2022-12-13T00:14:03.096Z,52.81
2022-12-13T00:15:03.069Z,49.88
2022-12-13T00:16:04.257Z,51.12
2022-12-13T00:17:03.082Z,46.94
2022-12-13T00:18:03.061Z,54.16
2022-12-13T00:19:03.045Z,57.46
2022-12-13T00:20:03.052Z,44.81
2022-12-13T00:21:03.851Z,45.58
2022-12-13T00:22:03.023Z,47.88
2022-12-13T00:23:03.010Z,48.24
2022-12-13T00:24:03.025Z,53.34
2022-12-13T00:25:03.012Z,49.71
2022-12-13T00:26:03.015Z,49.81
2022-12-13T00:28:55.221Z,44.46
2022-12-13T00:29:55.214Z,50.99
2022-12-13T00:30:55.246Z,45.03
2022-12-13T00:32:00.529Z,56.70
2022-12-13T00:32:57.274Z,51.98
2022-12-13T00:33:56.297Z,48.82
2022-12-13T00:34:56.272Z,57.60
2022-12-13T00:35:56.270Z,54.41
2022-12-13T00:36:56.251Z,53.26
2022-12-13T00:37:56.243Z,55.39
2022-12-13T00:38:56.244Z,53.32
2022-12-13T00:39:56.222Z,66.88
2022-12-13T00:40:56.212Z,64.41
2022-12-13T00:41:56.206Z,55.16
2022-12-13T00:42:56.216Z,51.60
2022-12-13T00:43:56.222Z,57.87
2022-12-13T00:44:56.224Z,50.66
2022-12-13T00:45:56.235Z,54.63
2022-12-13T00:46:56.171Z,60.73
2022-12-13T00:47:56.172Z,53.91
2022-12-13T00:48:56.155Z,50.27
2022-12-13T00:49:56.155Z,55.90
2022-12-13T00:50:56.140Z,48.46
2022-12-13T00:51:56.134Z,61.82
2022-12-13T00:52:56.132Z,54.92
2022-12-13T00:53:56.122Z,51.64
2022-12-13T00:54:56.112Z,56.11
2022-12-13T00:55:56.101Z,62.13
2022-12-13T00:56:56.101Z,51.17
2022-12-13T00:57:56.107Z,57.32
2022-12-13T00:58:56.091Z,42.77
2022-12-13T00:59:56.081Z,57.22
2022-12-13T01:00:56.131Z,61.63
2022-12-13T01:01:56.108Z,56.14
2022-12-13T01:02:56.081Z,51.46
2022-12-13T01:03:56.045Z,45.65
2022-12-13T01:04:56.039Z,40.62
2022-12-13T01:06:58.014Z,51.65
2022-12-13T01:07:56.053Z,45.55
2022-12-13T01:08:56.006Z,49.04
2022-12-13T01:09:56.007Z,46.63
2022-12-13T01:10:55.997Z,58.04
2022-12-13T01:11:55.970Z,48.92
2022-12-13T01:12:55.969Z,42.42
2022-12-13T01:13:55.964Z,45.44
2022-12-13T01:14:56.320Z,41.98
2022-12-13T01:15:56.942Z,51.39
2022-12-13T01:16:56.063Z,47.55
2022-12-13T01:17:55.939Z,49.06
2022-12-13T01:18:55.923Z,41.13
2022-12-13T01:19:55.924Z,51.98
2022-12-13T01:20:55.914Z,61.63
2022-12-13T01:21:55.909Z,49.76
2022-12-13T01:22:55.895Z,45.56
2022-12-13T01:23:57.445Z,53.11
2022-12-13T01:24:55.881Z,60.61
2022-12-13T01:25:55.878Z,59.25
2022-12-13T01:26:57.034Z,53.29
2022-12-13T01:27:55.855Z,52.42
2022-12-13T01:28:55.855Z,52.10
2022-12-13T01:29:55.844Z,55.55
2022-12-13T01:30:55.861Z,52.83
2022-12-13T01:31:56.375Z,51.73
2022-12-13T01:32:55.819Z,47.79
2022-12-13T01:33:55.804Z,42.47
2022-12-13T01:34:55.808Z,41.58
2022-12-13T01:35:55.793Z,49.82
2022-12-13T01:36:58.366Z,44.29
2022-12-13T01:37:55.782Z,41.58
2022-12-13T01:38:58.786Z,46.98
2022-12-13T01:39:58.452Z,54.12
2022-12-13T01:40:55.809Z,47.35
2022-12-13T01:41:55.784Z,45.76
2022-12-13T01:42:55.731Z,44.34
2022-12-13T01:43:56.733Z,56.26
2022-12-13T01:44:56.444Z,61.64
2022-12-13T01:45:55.795Z,65.88
2022-12-13T01:46:55.701Z,52.65
2022-12-13T01:47:55.709Z,54.92
2022-12-13T01:48:56.454Z,49.36
2022-12-13T01:49:55.697Z,43.15
2022-12-13T01:50:55.694Z,52.75
2022-12-13T01:51:55.672Z,52.54
2022-12-13T01:52:55.651Z,59.14
2022-12-13T01:53:55.648Z,57.23
2022-12-13T01:54:55.641Z,51.71
2022-12-13T01:55:56.632Z,59.15
2022-12-13T01:57:00.928Z,44.75
2022-12-13T01:57:56.628Z,62.44
2022-12-13T01:58:55.609Z,55.59
2022-12-13T01:59:55.605Z,58.77
2022-12-13T02:00:55.604Z,56.89
2022-12-13T02:02:00.913Z,49.14
2022-12-13T02:02:56.588Z,46.26
2022-12-13T02:03:55.572Z,49.53
2022-12-13T02:04:55.625Z,52.04
2022-12-13T02:05:55.553Z,56.36
2022-12-13T02:06:55.558Z,56.50
2022-12-13T02:07:55.634Z,50.97
2022-12-13T02:08:55.537Z,50.84
2022-12-13T02:09:56.525Z,58.68
2022-12-13T02:10:55.538Z,51.08
2022-12-13T02:11:55.509Z,47.86
2022-12-13T02:12:55.509Z,58.26
2022-12-13T02:13:55.593Z,62.28
2022-12-13T02:14:55.484Z,48.45
2022-12-13T02:15:56.527Z,58.49
2022-12-13T02:16:55.481Z,60.26
2022-12-13T02:17:55.479Z,56.51
2022-12-13T02:18:55.482Z,54.48
2022-12-13T02:19:55.967Z,47.32
2022-12-13T02:20:55.449Z,55.93
2022-12-13T02:21:56.385Z,46.93
2022-12-13T02:22:56.449Z,53.26
2022-12-13T02:23:55.432Z,50.19
2022-12-13T02:24:55.420Z,52.09
2022-12-13T02:25:55.430Z,61.98
2022-12-13T02:26:55.445Z,46.88
2022-12-13T02:28:00.646Z,44.22
2022-12-13T02:28:56.420Z,56.20
2022-12-13T02:29:55.390Z,56.76
2022-12-13T02:30:55.410Z,60.82
2022-12-13T02:31:55.359Z,51.93
2022-12-13T02:32:56.348Z,45.65
2022-12-13T02:33:55.348Z,45.62
2022-12-13T02:34:55.357Z,54.60
2022-12-13T02:35:55.323Z,48.57
2022-12-13T02:36:55.320Z,46.53
2022-12-13T02:37:55.310Z,58.70
2022-12-13T02:38:55.302Z,56.96
2022-12-13T02:39:55.298Z,45.09
2022-12-13T02:40:55.292Z,44.64
2022-12-13T02:41:56.281Z,59.34
2022-12-13T02:42:55.290Z,46.90
2022-12-13T02:44:01.135Z,60.47
2022-12-13T02:44:56.272Z,62.54
2022-12-13T02:45:55.332Z,62.27
2022-12-13T02:46:55.973Z,52.26
2022-12-13T02:47:55.241Z,54.14
2022-12-13T02:48:55.230Z,47.77
2022-12-13T02:49:55.214Z,55.61
2022-12-13T02:50:55.227Z,49.82
2022-12-13T02:51:55.209Z,58.13
2022-12-13T02:52:55.194Z,55.20
2022-12-13T02:53:55.183Z,54.14
2022-12-13T02:54:55.182Z,52.70
2022-12-13T02:55:55.177Z,57.93
2022-12-13T02:56:55.176Z,54.43
2022-12-13T02:57:55.162Z,51.40
2022-12-13T02:58:55.154Z,57.44
2022-12-13T02:59:55.138Z,53.20
2022-12-13T03:00:55.134Z,63.18
2022-12-13T03:01:55.181Z,54.52
2022-12-13T03:02:57.205Z,50.22
2022-12-13T03:03:55.106Z,62.11
2022-12-13T03:04:55.100Z,60.12
2022-12-13T03:05:55.094Z,52.30
2022-12-13T03:06:55.088Z,59.50
2022-12-13T03:07:55.113Z,51.35
2022-12-13T03:08:55.088Z,51.60
2022-12-13T03:09:55.066Z,53.23
2022-12-13T03:10:55.061Z,61.80
2022-12-13T03:11:55.047Z,53.49
2022-12-13T03:12:55.040Z,46.98
2022-12-13T03:13:55.031Z,48.41
2022-12-13T03:14:55.025Z,51.46
2022-12-13T03:15:55.086Z,42.08
2022-12-13T03:16:55.004Z,58.23
2022-12-13T03:17:55.018Z,56.44
2022-12-13T03:18:54.997Z,43.22
2022-12-13T03:19:54.992Z,57.62
2022-12-13T03:20:54.985Z,54.94
2022-12-13T03:21:54.966Z,50.31
2022-12-13T03:22:54.978Z,55.25
2022-12-13T03:23:54.950Z,50.64
2022-12-13T03:24:54.943Z,45.11
2022-12-13T03:25:54.942Z,62.22
2022-12-13T03:26:54.932Z,51.07
2022-12-13T03:27:54.919Z,60.79
2022-12-13T03:28:54.910Z,60.74
2022-12-13T03:29:54.915Z,60.48
2022-12-13T03:30:54.948Z,64.64
2022-12-13T03:31:54.899Z,55.77
2022-12-13T03:32:54.882Z,54.99
2022-12-13T03:33:54.948Z,58.67
2022-12-13T03:35:00.746Z,63.29
2022-12-13T03:35:55.856Z,55.09
2022-12-13T03:36:54.914Z,64.39
2022-12-13T03:37:54.843Z,57.92
2022-12-13T03:38:54.829Z,61.35
2022-12-13T03:39:54.833Z,53.43
2022-12-13T03:40:54.833Z,58.60
2022-12-13T03:41:54.830Z,57.79
2022-12-13T03:42:54.817Z,59.43
2022-12-13T03:43:54.799Z,63.29
2022-12-13T03:44:54.784Z,57.93
2022-12-13T03:45:54.809Z,61.68
2022-12-13T03:46:54.833Z,60.28
2022-12-13T03:47:54.782Z,56.54
2022-12-13T03:48:54.770Z,44.40
2022-12-13T03:49:54.803Z,58.42
2022-12-13T03:50:54.757Z,59.26
2022-12-13T03:51:54.750Z,54.68
2022-12-13T03:52:54.731Z,55.72
2022-12-13T03:53:54.739Z,54.48
2022-12-13T03:54:54.718Z,58.83
2022-12-13T03:55:54.717Z,60.40
2022-12-13T03:56:54.700Z,55.04
2022-12-13T03:57:54.692Z,55.85
2022-12-13T03:58:54.694Z,57.03
2022-12-13T03:59:54.681Z,59.28
2022-12-13T04:00:54.671Z,62.29
2022-12-13T04:01:55.041Z,61.01
2022-12-13T04:02:54.721Z,60.71
2022-12-13T04:03:54.641Z,62.10
2022-12-13T04:04:54.650Z,58.52
2022-12-13T04:05:55.633Z,58.63
2022-12-13T04:06:54.631Z,60.12
2022-12-13T04:07:54.629Z,59.23
2022-12-13T04:08:55.627Z,54.71
2022-12-13T04:09:54.611Z,61.25
2022-12-13T04:10:54.596Z,64.24
2022-12-13T04:11:54.593Z,59.56
2022-12-13T04:12:54.588Z,62.14
2022-12-13T04:13:55.568Z,65.52
2022-12-13T04:14:56.494Z,59.13
2022-12-13T04:15:54.597Z,58.98
2022-12-13T04:16:54.546Z,60.38
2022-12-13T04:17:54.540Z,57.20
2022-12-13T04:18:54.528Z,58.36
2022-12-13T04:19:54.524Z,62.52
2022-12-13T04:20:54.541Z,60.71
2022-12-13T04:21:54.709Z,67.36
2022-12-13T04:22:55.501Z,64.21
2022-12-13T04:23:54.494Z,58.80
2022-12-13T04:24:54.580Z,62.99
2022-12-13T04:25:54.503Z,64.73
2022-12-13T04:26:54.478Z,65.13
2022-12-13T04:27:54.467Z,61.39
2022-12-13T04:28:54.969Z,63.76
2022-12-13T04:29:55.483Z,57.11
2022-12-13T04:30:54.443Z,62.16
2022-12-13T04:31:54.480Z,65.60
2022-12-13T04:32:54.429Z,62.63
2022-12-13T04:33:54.421Z,65.54
2022-12-13T04:35:01.263Z,68.17
2022-12-13T04:35:55.406Z,68.59
2022-12-13T04:36:54.398Z,64.38
2022-12-13T04:37:54.396Z,64.52
2022-12-13T04:38:54.383Z,63.26
2022-12-13T04:39:54.384Z,62.49
2022-12-13T04:40:55.368Z,67.32
2022-12-13T04:41:54.355Z,64.60
2022-12-13T04:42:54.582Z,61.14
2022-12-13T04:43:54.350Z,64.12
2022-12-13T04:44:54.331Z,63.90
2022-12-13T04:45:54.384Z,58.53
2022-12-13T04:46:54.313Z,62.64
2022-12-13T04:47:55.309Z,64.14
2022-12-13T04:48:54.300Z,62.27
2022-12-13T04:49:54.290Z,62.75
2022-12-13T04:50:54.294Z,62.70
2022-12-13T04:52:00.406Z,65.16
2022-12-13T04:52:56.277Z,69.77
2022-12-13T04:53:54.269Z,64.25
2022-12-13T04:54:55.744Z,60.48
2022-12-13T04:55:54.268Z,65.02
2022-12-13T04:56:54.491Z,63.48
2022-12-13T04:57:54.238Z,63.83
2022-12-13T04:58:54.226Z,66.03
2022-12-13T04:59:54.896Z,64.11
2022-12-13T05:00:54.253Z,62.32
2022-12-13T05:01:54.255Z,63.41
2022-12-13T05:02:54.281Z,64.74
2022-12-13T05:03:54.184Z,68.45
2022-12-13T05:04:54.636Z,70.98
2022-12-13T05:05:54.172Z,62.76
2022-12-13T05:06:54.178Z,65.07
2022-12-13T05:07:54.215Z,63.04
2022-12-13T05:08:54.159Z,61.09
2022-12-13T05:09:54.138Z,64.44
2022-12-13T05:10:54.130Z,64.98
2022-12-13T05:12:00.861Z,61.64
2022-12-13T05:12:55.112Z,56.61
2022-12-13T05:13:54.115Z,60.74
2022-12-13T05:14:54.105Z,60.48
2022-12-13T05:15:55.306Z,62.20
2022-12-13T05:16:55.102Z,62.71
2022-12-13T05:17:54.087Z,63.86
2022-12-13T05:21:00.840Z,67.18
2022-12-13T05:22:01.492Z,64.68
2022-12-13T05:23:01.929Z,62.05
2022-12-13T05:24:01.910Z,62.63
2022-12-13T05:25:01.904Z,66.73
2022-12-13T05:26:01.886Z,66.84
2022-12-13T05:27:01.886Z,66.31
2022-12-13T05:28:08.797Z,64.72
2022-12-13T05:29:02.874Z,66.37
2022-12-13T05:30:04.366Z,65.74
2022-12-13T05:31:02.890Z,65.50
2022-12-13T05:32:01.892Z,67.00
2022-12-13T05:33:01.843Z,64.27
2022-12-13T05:34:01.885Z,63.33
2022-12-13T05:35:01.815Z,66.52
2022-12-13T05:36:02.360Z,67.05
2022-12-13T05:37:02.810Z,67.37
2022-12-13T05:38:01.801Z,68.72
2022-12-13T05:39:01.796Z,64.12
2022-12-13T05:40:02.795Z,66.39
2022-12-13T05:41:01.782Z,66.56
2022-12-13T05:42:02.839Z,61.26
2022-12-13T05:43:02.154Z,64.08
2022-12-13T05:44:02.760Z,62.89
2022-12-13T05:45:01.746Z,63.31
2022-12-13T05:46:01.753Z,67.14
2022-12-13T05:47:02.345Z,65.90
2022-12-13T05:48:01.724Z,65.07
2022-12-13T05:49:02.711Z,64.62
2022-12-13T05:50:01.718Z,65.56
2022-12-13T05:51:10.930Z,65.32
2022-12-13T05:52:02.691Z,66.18
2022-12-13T05:53:01.683Z,67.50
2022-12-13T05:54:01.759Z,65.90
2022-12-13T05:55:02.667Z,68.23
2022-12-13T05:56:02.713Z,71.62
2022-12-13T05:57:01.659Z,66.75
2022-12-13T05:58:02.300Z,65.76
2022-12-13T05:59:01.636Z,65.61
2022-12-13T06:00:01.679Z,67.27
2022-12-13T06:01:01.659Z,66.18
2022-12-13T06:02:01.862Z,67.54
2022-12-13T06:03:02.181Z,68.58
2022-12-13T06:04:01.606Z,70.36
2022-12-13T06:05:01.601Z,66.33
2022-12-13T06:06:01.578Z,65.56
2022-12-13T06:07:03.320Z,65.00
2022-12-13T06:08:01.611Z,66.28
2022-12-13T06:09:01.599Z,66.54
2022-12-13T06:10:10.355Z,65.52
2022-12-13T06:11:10.838Z,68.02
2022-12-13T06:12:02.556Z,68.82
2022-12-13T06:13:02.679Z,68.90
2022-12-13T06:14:02.526Z,67.34
2022-12-13T06:15:01.817Z,67.84
2022-12-13T06:16:02.039Z,68.20
2022-12-13T06:17:02.290Z,66.22
2022-12-13T06:18:01.496Z,67.34
2022-12-13T06:19:04.539Z,65.22
2022-12-13T06:20:02.486Z,66.75
2022-12-13T06:21:02.502Z,69.93
2022-12-13T06:22:01.461Z,70.22
2022-12-13T06:23:01.456Z,70.50
2022-12-13T06:24:01.457Z,67.20
2022-12-13T06:25:02.231Z,70.10
2022-12-13T06:26:01.447Z,69.56
2022-12-13T06:27:01.443Z,66.21
2022-12-13T06:28:01.652Z,68.50
2022-12-13T06:29:01.424Z,68.74
2022-12-13T06:30:02.761Z,71.01
2022-12-13T06:31:02.446Z,67.84
2022-12-13T06:32:03.276Z,68.64
2022-12-13T06:33:01.406Z,68.71
2022-12-13T06:34:01.374Z,71.59
2022-12-13T06:35:27.156Z,68.57
2022-12-13T06:36:02.358Z,69.78
2022-12-13T06:37:01.739Z,69.31
2022-12-13T06:38:02.099Z,68.61
2022-12-13T06:39:01.338Z,71.85
2022-12-13T06:40:02.221Z,66.93
2022-12-13T06:41:02.089Z,66.33
2022-12-13T06:42:01.331Z,68.04
2022-12-13T06:43:01.309Z,68.22
2022-12-13T06:44:01.429Z,67.75
2022-12-13T06:45:01.309Z,70.02
2022-12-13T06:46:01.345Z,68.48
2022-12-13T06:47:10.808Z,68.97
2022-12-13T06:48:02.274Z,67.63
2022-12-13T06:49:01.260Z,68.34
2022-12-13T06:50:05.538Z,65.11
2022-12-13T06:51:01.244Z,64.82
2022-12-13T06:52:01.281Z,69.75
2022-12-13T06:53:01.265Z,68.92
2022-12-13T06:54:01.239Z,67.63
2022-12-13T06:55:01.248Z,67.19
2022-12-13T06:56:02.748Z,69.98
2022-12-13T06:57:01.248Z,70.33
2022-12-13T06:58:01.200Z,68.86
2022-12-13T06:59:02.278Z,75.38
2022-12-13T07:00:01.207Z,68.61
2022-12-13T07:01:01.199Z,70.78
2022-12-13T07:02:03.909Z,69.79
2022-12-13T07:03:01.183Z,69.20
2022-12-13T07:04:01.145Z,72.38
2022-12-13T07:05:01.145Z,67.90
2022-12-13T07:06:01.782Z,67.01
2022-12-13T07:07:02.462Z,66.52
2022-12-13T07:08:02.165Z,67.31
2022-12-13T07:09:02.111Z,66.68
2022-12-13T07:10:01.119Z,68.50
2022-12-13T07:11:01.094Z,67.11
2022-12-13T07:12:01.094Z,68.58
2022-12-13T07:13:02.719Z,67.86
2022-12-13T07:14:01.073Z,65.71
2022-12-13T07:15:01.081Z,66.46
2022-12-13T07:16:01.444Z,70.49
2022-12-13T07:17:03.634Z,67.63
2022-12-13T07:18:02.050Z,67.77
2022-12-13T07:19:01.662Z,69.24
2022-12-13T07:20:01.407Z,68.10
2022-12-13T07:21:01.030Z,70.69
2022-12-13T07:22:01.342Z,67.84
2022-12-13T07:23:01.012Z,66.15
2022-12-13T07:24:01.015Z,68.62
2022-12-13T07:25:01.792Z,67.49
2022-12-13T07:26:01.723Z,68.20
2022-12-13T07:27:00.989Z,67.64
2022-12-13T07:28:02.089Z,67.95
2022-12-13T07:29:00.974Z,68.98
2022-12-13T07:30:01.963Z,69.22
2022-12-13T07:31:00.995Z,69.13
2022-12-13T07:32:02.237Z,68.40
2022-12-13T07:33:00.939Z,68.76
2022-12-13T07:34:00.938Z,70.91
2022-12-13T07:35:00.922Z,67.10
2022-12-13T07:36:00.914Z,66.61
2022-12-13T07:37:00.907Z,65.81
2022-12-13T07:38:00.909Z,67.38
2022-12-13T07:39:02.716Z,69.51
2022-12-13T07:40:04.414Z,66.25
2022-12-13T07:41:01.934Z,70.91
2022-12-13T07:42:00.868Z,72.20
2022-12-13T07:43:00.858Z,68.01
2022-12-13T07:44:00.860Z,67.62
2022-12-13T07:45:00.847Z,69.80
2022-12-13T07:46:00.906Z,69.00
2022-12-13T07:47:00.889Z,67.62
2022-12-13T07:48:00.824Z,69.44
2022-12-13T07:49:01.785Z,68.05
2022-12-13T07:50:01.619Z,67.17
2022-12-13T07:51:00.828Z,69.88
2022-12-13T07:52:00.792Z,69.54
2022-12-13T07:53:01.738Z,70.08
2022-12-13T07:54:00.792Z,69.94
2022-12-13T07:55:01.774Z,70.31
2022-12-13T07:56:00.761Z,68.46
2022-12-13T07:57:04.397Z,70.65
2022-12-13T07:58:01.770Z,70.12
2022-12-13T07:59:00.747Z,69.37
2022-12-13T08:00:01.738Z,67.11
2022-12-13T08:01:00.726Z,68.61
2022-12-13T08:02:01.742Z,67.66
2022-12-13T08:03:00.723Z,70.07
2022-12-13T08:04:00.722Z,68.91
2022-12-13T08:05:26.147Z,70.10
2022-12-13T08:06:01.737Z,67.02
2022-12-13T08:07:00.742Z,66.37
2022-12-13T08:08:00.751Z,66.72
2022-12-13T08:09:00.680Z,68.70
2022-12-13T08:10:00.660Z,66.65
2022-12-13T08:11:01.542Z,69.10
2022-12-13T08:12:01.234Z,68.43
2022-12-13T08:13:01.223Z,67.89
2022-12-13T08:14:00.654Z,68.82
2022-12-13T08:15:01.223Z,67.40
2022-12-13T08:16:00.696Z,67.08
2022-12-13T08:17:00.642Z,68.15
2022-12-13T08:18:00.605Z,67.89
2022-12-13T08:19:02.399Z,67.59
2022-12-13T08:20:00.728Z,68.58
2022-12-13T08:21:00.622Z,71.04
2022-12-13T08:22:01.481Z,70.49
2022-12-13T08:23:02.001Z,68.91
2022-12-13T08:24:00.576Z,68.14
2022-12-13T08:25:00.549Z,67.16
2022-12-13T08:26:00.538Z,66.97
2022-12-13T08:27:00.527Z,65.85
2022-12-13T08:28:01.988Z,66.57
2022-12-13T08:29:00.516Z,69.31
2022-12-13T08:30:00.512Z,69.21
2022-12-13T08:31:00.552Z,67.64
2022-12-13T08:32:01.366Z,67.14
2022-12-13T08:33:05.207Z,69.15
2022-12-13T08:34:00.478Z,67.04
2022-12-13T08:35:01.220Z,69.65
2022-12-13T08:36:00.458Z,68.79
2022-12-13T08:37:03.157Z,71.09
2022-12-13T08:38:01.345Z,70.15
2022-12-13T08:39:00.430Z,65.80
2022-12-13T08:40:00.431Z,68.95
2022-12-13T08:41:00.422Z,69.22
2022-12-13T08:42:00.421Z,67.17
2022-12-13T08:43:01.409Z,69.74
2022-12-13T08:44:01.396Z,68.37
2022-12-13T08:45:00.391Z,68.51
2022-12-13T08:46:01.097Z,67.48
2022-12-13T08:47:00.455Z,70.36
2022-12-13T08:48:00.382Z,67.13
2022-12-13T08:49:00.425Z,68.28
2022-12-13T08:50:02.639Z,68.59
2022-12-13T08:51:00.346Z,66.72
2022-12-13T08:52:00.342Z,69.24
2022-12-13T08:53:00.350Z,69.59
2022-12-13T08:54:10.708Z,67.85
2022-12-13T08:55:01.303Z,71.70
2022-12-13T08:56:01.310Z,72.61
2022-12-13T08:57:00.309Z,68.36
2022-12-13T08:58:01.078Z,69.32
2022-12-13T08:59:00.290Z,69.20
2022-12-13T09:00:00.295Z,68.44
2022-12-13T09:01:01.276Z,69.40
2022-12-13T09:04:07.421Z,71.03
2022-12-13T09:05:07.725Z,69.14
2022-12-13T09:06:06.547Z,68.65
2022-12-13T09:07:09.455Z,67.25
2022-12-13T09:08:23.156Z,69.09
2022-12-13T09:09:08.618Z,69.59
2022-12-13T09:10:25.556Z,67.37
2022-12-13T09:11:10.449Z,68.75
2022-12-13T09:12:10.925Z,67.15
2022-12-13T09:13:11.714Z,67.68
2022-12-13T09:14:07.575Z,68.20
2022-12-13T09:15:22.178Z,68.04
2022-12-13T09:16:14.014Z,65.08
2022-12-13T09:17:08.621Z,67.05
2022-12-13T09:18:08.541Z,66.87
2022-12-13T09:19:26.264Z,66.19
2022-12-13T09:20:10.309Z,69.58
2022-12-13T09:21:10.732Z,71.16
2022-12-13T09:22:07.512Z,68.18
2022-12-13T09:23:08.498Z,68.22
2022-12-13T09:24:23.478Z,68.74
2022-12-13T09:25:08.485Z,66.89
2022-12-13T09:26:08.478Z,67.77
2022-12-13T09:27:09.740Z,66.71
2022-12-13T09:28:07.468Z,68.51
2022-12-13T09:29:10.925Z,69.61
2022-12-13T09:30:07.453Z,70.78
2022-12-13T09:31:07.472Z,68.68
2022-12-13T09:32:07.457Z,67.27
2022-12-13T09:33:18.277Z,68.32
2022-12-13T09:34:08.473Z,69.03
2022-12-13T09:35:07.412Z,70.05
2022-12-13T09:36:07.420Z,68.27
2022-12-13T09:37:07.423Z,70.09
2022-12-13T09:38:07.390Z,69.96
2022-12-13T09:39:07.378Z,68.38
2022-12-13T09:40:16.058Z,67.45
2022-12-13T09:41:10.148Z,70.21
2022-12-13T09:42:10.606Z,67.83
2022-12-13T09:43:21.823Z,68.36
2022-12-13T09:44:32.401Z,69.02
2022-12-13T09:45:21.979Z,68.16
2022-12-13T09:46:13.387Z,65.91
2022-12-13T09:47:13.546Z,68.59
2022-12-13T09:48:13.562Z,65.81
2022-12-13T09:49:13.146Z,66.00
2022-12-13T09:50:07.399Z,66.98
2022-12-13T09:51:17.050Z,67.59
2022-12-13T09:52:11.802Z,67.91
2022-12-13T09:53:12.022Z,67.43
2022-12-13T09:54:08.271Z,69.21
2022-12-13T09:55:10.857Z,69.68
2022-12-13T09:56:10.269Z,69.18
2022-12-13T09:57:07.247Z,67.99
2022-12-13T09:58:07.271Z,69.10
2022-12-13T09:59:07.239Z,68.96
2022-12-13T10:00:07.924Z,67.86
2022-12-13T10:03:14.026Z,69.00
2022-12-13T10:04:14.023Z,67.26
2022-12-13T10:05:23.252Z,68.82
2022-12-13T10:06:14.999Z,68.27
2022-12-13T10:07:15.000Z,68.08
2022-12-13T10:08:14.884Z,67.23
2022-12-13T10:09:13.974Z,66.86
2022-12-13T10:10:13.970Z,68.83
2022-12-13T10:11:13.976Z,68.44
2022-12-13T10:12:13.952Z,69.40
2022-12-13T10:13:13.948Z,68.43
2022-12-13T10:14:14.878Z,67.19
2022-12-13T10:15:13.933Z,66.79
2022-12-13T10:16:14.974Z,69.83
2022-12-13T10:17:16.004Z,70.44
2022-12-13T10:18:15.000Z,71.28
2022-12-13T10:19:29.009Z,70.84
2022-12-13T10:20:17.002Z,69.92
2022-12-13T10:21:14.988Z,68.76
2022-12-13T10:22:14.960Z,68.38
2022-12-13T10:23:35.755Z,67.45
2022-12-13T10:24:27.257Z,68.53
2022-12-13T10:25:16.949Z,65.92
2022-12-13T10:26:24.501Z,66.37
2022-12-13T10:27:15.936Z,68.67
2022-12-13T10:28:14.931Z,74.78
2022-12-13T10:29:16.489Z,68.24
2022-12-13T10:30:14.916Z,67.23
2022-12-13T10:31:14.943Z,69.29
2022-12-13T10:32:14.929Z,68.21
2022-12-13T10:33:14.887Z,66.81
2022-12-13T10:34:15.882Z,66.13
2022-12-13T10:35:14.883Z,68.66
2022-12-13T10:36:14.853Z,66.30
2022-12-13T10:37:14.901Z,65.94
2022-12-13T10:38:15.497Z,69.13
2022-12-13T10:39:14.842Z,69.12
2022-12-13T10:40:14.835Z,68.08
2022-12-13T10:41:16.468Z,68.22
2022-12-13T10:42:23.591Z,67.08
2022-12-13T10:43:15.814Z,67.82
2022-12-13T10:44:14.805Z,68.56
2022-12-13T10:45:14.798Z,67.79
2022-12-13T10:46:15.807Z,68.82
2022-12-13T10:47:17.104Z,69.11
2022-12-13T10:48:14.788Z,70.28
2022-12-13T10:49:14.781Z,68.44
2022-12-13T10:50:14.771Z,67.73
2022-12-13T10:51:14.882Z,68.74
2022-12-13T10:52:14.739Z,66.09
2022-12-13T10:53:14.756Z,66.76
2022-12-13T10:54:14.731Z,67.32
2022-12-13T10:55:22.981Z,67.08
2022-12-13T10:56:15.712Z,68.38
2022-12-13T10:57:15.710Z,65.79
2022-12-13T10:58:15.686Z,68.76
2022-12-13T10:59:17.619Z,69.57
2022-12-13T11:00:15.710Z,69.71
2022-12-13T11:01:14.701Z,68.36
2022-12-13T11:02:14.803Z,68.36
2022-12-13T11:03:14.648Z,68.24
2022-12-13T11:04:14.681Z,67.28
2022-12-13T11:05:15.471Z,68.49
2022-12-13T11:06:15.667Z,67.60
2022-12-13T11:07:14.669Z,67.32
2022-12-13T11:08:14.632Z,67.19
2022-12-13T11:09:22.892Z,67.90
2022-12-13T11:10:15.609Z,68.85
2022-12-13T11:11:14.610Z,67.64
2022-12-13T11:12:14.603Z,66.05
2022-12-13T11:13:14.578Z,69.57
2022-12-13T11:14:14.582Z,68.98
2022-12-13T11:15:14.572Z,66.09
2022-12-13T11:16:14.587Z,68.97
2022-12-13T11:17:14.547Z,69.27
2022-12-13T11:18:14.538Z,67.41
2022-12-13T11:19:14.581Z,68.30
2022-12-13T11:20:16.418Z,69.59
2022-12-13T11:21:14.553Z,68.55
2022-12-13T11:22:14.649Z,71.27
2022-12-13T11:23:14.524Z,70.70
2022-12-13T11:24:14.491Z,70.68
2022-12-13T11:25:16.400Z,71.65
2022-12-13T11:26:14.474Z,70.85
2022-12-13T11:27:14.470Z,68.82
2022-12-13T11:28:25.783Z,69.15
2022-12-13T11:29:15.471Z,72.17
2022-12-13T11:30:15.445Z,69.57
2022-12-13T11:31:14.434Z,70.24
2022-12-13T11:32:14.471Z,68.44
2022-12-13T11:33:15.444Z,70.10
2022-12-13T11:34:15.547Z,68.58
2022-12-13T11:35:14.405Z,68.55
2022-12-13T11:36:14.401Z,69.12
2022-12-13T11:37:14.393Z,68.53
2022-12-13T11:38:15.411Z,69.98
2022-12-13T11:39:14.387Z,69.98
2022-12-13T11:40:14.485Z,66.32
2022-12-13T11:41:14.384Z,67.50
2022-12-13T11:42:15.354Z,69.49
2022-12-13T11:43:14.348Z,67.87
2022-12-13T11:44:14.415Z,68.86
2022-12-13T11:45:23.656Z,66.89
2022-12-13T11:46:15.402Z,70.28
2022-12-13T11:47:14.324Z,68.81
2022-12-13T11:48:14.353Z,67.35
2022-12-13T11:49:14.307Z,67.36
2022-12-13T11:50:18.963Z,68.39
2022-12-13T11:51:16.898Z,68.30
2022-12-13T11:52:14.297Z,72.58
2022-12-13T11:53:14.274Z,69.45
2022-12-13T11:54:14.271Z,69.57
2022-12-13T11:55:15.292Z,70.15
2022-12-13T11:56:14.287Z,73.35
2022-12-13T11:57:14.938Z,70.77
2022-12-13T11:58:16.459Z,68.41
2022-12-13T11:59:25.992Z,69.12
2022-12-13T12:00:34.458Z,71.34
2022-12-13T12:01:15.229Z,70.09
2022-12-13T12:02:17.585Z,70.48
2022-12-13T12:03:27.075Z,70.07
2022-12-13T12:04:15.944Z,71.01
2022-12-13T12:05:14.218Z,67.59
2022-12-13T12:06:14.906Z,69.83
2022-12-13T12:07:31.663Z,67.49
2022-12-13T12:08:31.647Z,68.17
2022-12-13T12:09:16.164Z,67.76
2022-12-13T12:10:14.168Z,70.36
2022-12-13T12:11:14.895Z,68.77
2022-12-13T12:12:16.016Z,68.71
2022-12-13T12:13:15.895Z,69.06
2022-12-13T12:14:14.979Z,70.33
2022-12-13T12:15:15.626Z,69.93
2022-12-13T12:16:17.035Z,68.95
2022-12-13T12:17:15.024Z,69.19
2022-12-13T12:18:14.107Z,69.67
2022-12-13T12:19:47.438Z,71.19
2022-12-13T12:20:14.125Z,69.94
2022-12-13T12:21:16.021Z,72.19
2022-12-13T12:22:15.143Z,69.96
2022-12-13T12:23:15.037Z,69.64
2022-12-13T12:24:14.032Z,68.25
2022-12-13T12:25:14.053Z,70.75
2022-12-13T12:26:14.021Z,68.61
2022-12-13T12:27:14.015Z,64.97
2022-12-13T12:28:16.574Z,68.05
2022-12-13T12:29:14.994Z,70.50
2022-12-13T12:30:13.998Z,67.51
2022-12-13T12:31:15.030Z,66.53
2022-12-13T12:32:13.982Z,67.31
2022-12-13T12:33:14.977Z,67.80
2022-12-13T12:34:15.527Z,65.34
2022-12-13T12:35:13.948Z,67.82
2022-12-13T12:36:13.947Z,65.95
2022-12-13T12:37:14.526Z,68.07
2022-12-13T12:38:13.986Z,66.84
2022-12-13T12:39:14.433Z,65.92
2022-12-13T12:40:14.433Z,65.40
2022-12-13T12:41:16.394Z,66.83
2022-12-13T12:42:14.902Z,66.68
2022-12-13T12:43:16.109Z,67.58
2022-12-13T12:44:14.884Z,69.10
2022-12-13T12:45:27.044Z,67.14
2022-12-13T12:46:15.907Z,66.58
2022-12-13T12:49:15.901Z,66.57
2022-12-13T12:50:13.838Z,68.98
2022-12-13T12:51:13.835Z,68.78
2022-12-13T12:52:13.826Z,68.14
2022-12-13T12:53:14.515Z,67.91
2022-12-13T12:54:13.811Z,70.10
2022-12-13T12:55:13.795Z,66.25
2022-12-13T12:56:14.437Z,67.83
2022-12-13T12:57:14.433Z,68.40
2022-12-13T12:58:13.771Z,66.02
2022-12-13T12:59:13.774Z,71.85
2022-12-13T13:00:14.393Z,68.31
2022-12-13T13:01:13.793Z,69.13
2022-12-13T13:02:13.880Z,67.93
2022-12-13T13:03:26.774Z,69.06